Karelia II — UFMR — position and weather

sailwx.info

Track history (hours):
 
Tides and Currents Weather Stations Pressure Air Temp Water Temp Dewpoint Dewpoint Depression Visibility Wind Speed Wind Dir Waves Ship Positions

Karelia II

Last reported at 2017-Feb-26 23:25 UTC. Time now 2017-Feb-28 12:55 UTC.
Position N 71°34' E 025°35'.

Length 60 m; draft 7.7 m.

Type: Fishing. MMSI: 273425330.

Date/timePositionNaut miles runAvg speedWind from/ knotsBaromVisibWave heightAir tempDewpointWater temp
2017-Feb-26 23:25N 71°34' E 025°35'910.7
2017-Feb-26 22:32N 71°28' E 025°57'2 2.3
2017-Feb-26 21:33N 71°26' E 025°56'1 0.8
2017-Feb-26 20:33N 71°26' E 025°53'2 1.9
2017-Feb-26 19:33N 71°24' E 025°52'1 0.8
2017-Feb-26 18:33N 71°25' E 025°50'4 3.9
2017-Feb-26 17:33N 71°26' E 025°38'4 3.5
2017-Feb-26 16:33N 71°23' E 025°30'3 3.5
2017-Feb-26 15:33N 71°23' E 025°41'2 2.3
2017-Feb-26 14:33N 71°26' E 025°43'4 4.1
2017-Feb-26 13:33N 71°24' E 025°32'3 3.3
2017-Feb-26 12:33N 71°23' E 025°42'4 3.5
2017-Feb-26 11:33N 71°23' E 025°53'4 3.9
2017-Feb-26 10:33N 71°23' E 026°05'2 2.2
2017-Feb-26 09:33N 71°23' E 025°58'4 4.2
2017-Feb-26 08:33N 71°23' E 025°45'1 0.9
2017-Feb-26 07:33N 71°23' E 025°43'2 1.7
2017-Feb-26 06:33N 71°23' E 025°48'5 4.9
2017-Feb-26 05:33N 71°25' E 025°34'1 1.3
2017-Feb-26 04:33N 71°25' E 025°31'2 1.5
2017-Feb-26 03:33N 71°25' E 025°35'4 3.6
2017-Feb-26 02:33N 71°28' E 025°42'4 3.7
2017-Feb-26 01:33N 71°30' E 025°51'3 3.3
2017-Feb-26 00:33N 71°28' E 025°44'3 2.7
2017-Feb-25 23:33N 71°26' E 025°40'4 4.1
2017-Feb-25 22:33N 71°30' E 025°44'1 1.4
2017-Feb-25 21:33N 71°28' E 025°44'3 3.1
2017-Feb-25 20:33N 71°25' E 025°41'3 3.2
2017-Feb-25 19:33N 71°28' E 025°38'3 3.4
2017-Feb-25 18:33N 71°26' E 025°29'3 2.9
2017-Feb-25 17:33N 71°24' E 025°34'1 1.1
2017-Feb-25 16:32N 71°23' E 025°31'4 3.8
2017-Feb-25 15:33N 71°23' E 025°43'1 0.8
2017-Feb-25 14:32N 71°23' E 025°45'2 1.8
2017-Feb-25 13:33N 71°23' E 025°40'2 1.5
2017-Feb-25 12:33N 71°23' E 025°44'3 2.9
2017-Feb-25 11:33N 71°24' E 025°35'4 3.7
2017-Feb-25 10:33N 71°23' E 025°47'0 0.3
2017-Feb-25 09:33N 71°23' E 025°47'4 4.2
2017-Feb-25 08:33N 71°23' E 025°34'1 1.4
2017-Feb-25 07:33N 71°23' E 025°30'3 3.2
2017-Feb-25 06:33N 71°23' E 025°21'4 3.7
2017-Feb-25 05:33N 71°23' E 025°32'4 4.2
2017-Feb-25 04:33N 71°23' E 025°45'3 2.8
2017-Feb-25 03:33N 71°23' E 025°36'4 4.2
2017-Feb-25 02:33N 71°23' E 025°23'3 3.4
2017-Feb-25 01:33N 71°24' E 025°34'3 3.1
2017-Feb-25 00:33N 71°23' E 025°44'3 3.0
2017-Feb-24 23:33N 71°26' E 025°47'3 2.6
2017-Feb-24 22:33N 71°28' E 025°49'3 2.9
2017-Feb-24 21:33N 71°26' E 025°47'4 4.3
2017-Feb-24 20:32N 71°27' E 025°34'1 1.3
2017-Feb-24 19:33N 71°26' E 025°37'2 2.2
2017-Feb-24 18:33N 71°24' E 025°40'4 3.8
2017-Feb-24 17:33N 71°23' E 025°52'4 4.2
2017-Feb-24 16:33N 71°23' E 026°05'3 2.8
2017-Feb-24 15:33N 71°23' E 025°56'3 2.6
2017-Feb-24 14:33N 71°24' E 025°49'3 2.7
2017-Feb-24 13:33N 71°23' E 025°57'3 3.3
2017-Feb-24 12:33N 71°23' E 025°46'1 0.7
2017-Feb-24 11:33N 71°23' E 025°49'1 0.9
2017-Feb-24 10:33N 71°23' E 025°51'4 4.2
2017-Feb-24 09:33N 71°24' E 025°38'4 3.6
2017-Feb-24 08:33N 71°23' E 025°49'2 1.7
2017-Feb-24 07:33N 71°23' E 025°44'2 2.4
2017-Feb-24 06:33N 71°23' E 025°37'3 3.1
2017-Feb-24 05:32N 71°25' E 025°45'1 1.3
2017-Feb-24 04:33N 71°26' E 025°42'2 2.0
2017-Feb-24 03:33N 71°26' E 025°48'3 2.9
2017-Feb-24 02:33N 71°27' E 025°56'3 3.1
2017-Feb-24 01:33N 71°25' E 025°47'3 2.8
2017-Feb-24 00:33N 71°23' E 025°54'4 4.4
2017-Feb-23 23:33N 71°26' E 025°44'1 0.8
2017-Feb-23 22:33N 71°26' E 025°44'2 2.5
2017-Feb-23 21:33N 71°28' E 025°45'3 2.5
2017-Feb-23 20:33N 71°26' E 025°50'4 4.0
2017-Feb-23 19:32N 71°26' E 025°37'0 0.5
2017-Feb-23 18:33N 71°25' E 025°38'4 4.1
2017-Feb-23 17:33N 71°25' E 025°50'2 1.8
2017-Feb-23 16:33N 71°24' E 025°45'4 4.3
2017-Feb-23 15:33N 71°24' E 025°32'1211.7
2017-Feb-23 14:33N 71°21' E 024°56'1212.4
2017-Feb-23 13:33N 71°19' E 024°18'1212.3
2017-Feb-23 12:33N 71°17' E 023°41'1312.9
2017-Feb-23 11:33N 71°10' E 023°06'1211.8
2017-Feb-23 10:33N 71°04' E 022°34'1 1.4
2017-Feb-23 09:33N 71°03' E 022°31'1 1.4
2017-Feb-23 08:33N 71°04' E 022°34'4 3.9
2017-Feb-23 07:33N 71°01' E 022°26'4 3.5
2017-Feb-23 06:33N 71°03' E 022°35'4 3.6
2017-Feb-23 05:33N 71°05' E 022°45'2 2.3
2017-Feb-23 04:33N 71°07' E 022°49'3 2.7
2017-Feb-23 03:33N 71°08' E 022°57'2 1.6
2017-Feb-23 02:33N 71°09' E 023°02'4 3.9
2017-Feb-23 01:33N 71°11' E 022°53'1 1.1
2017-Feb-23 00:33N 71°10' E 022°54'3 2.8
2017-Feb-22 23:33N 71°10' E 023°03'3 3.0
2017-Feb-22 22:33N 71°08' E 022°58'4 4.2
2017-Feb-22 21:33N 71°05' E 022°46'4 4.5
2017-Feb-22 20:33N 71°03' E 022°35'4 4.5
2017-Feb-22 19:33N 71°01' E 022°23'1 0.9
2017-Feb-22 18:33N 71°01' E 022°25'3 3.5
2017-Feb-22 17:33N 71°05' E 022°28'3 3.3
2017-Feb-22 16:33N 71°03' E 022°37'4 3.5
2017-Feb-22 15:33N 71°06' E 022°46'4 4.2
2017-Feb-22 14:33N 71°03' E 022°36'4 4.4
2017-Feb-22 13:33N 71°01' E 022°24'0 0.4
2017-Feb-22 12:33N 71°01' E 022°23'4 3.7
2017-Feb-22 11:32N 71°03' E 022°31'1 0.9
2017-Feb-22 10:33N 71°03' E 022°34'4 4.2
2017-Feb-22 09:32N 71°01' E 022°23'1 1.1
2017-Feb-22 08:33N 71°01' E 022°26'4 3.7
2017-Feb-22 07:33N 71°03' E 022°36'1 0.7
2017-Feb-22 06:32N 71°03' E 022°34'4 4.3
2017-Feb-22 05:33N 71°01' E 022°23'7 7.3
2017-Feb-22 04:33N 71°06' E 022°09'2 1.8
2017-Feb-22 03:12N 71°06' E 022°02'2 3.2
2017-Feb-22 02:33N 71°04' E 021°60'3 3.2
2017-Feb-22 01:33N 71°01' E 021°57'1 0.9
2017-Feb-22 00:33N 71°01' E 021°59'5 1.0
2017-Feb-21 19:16N 71°06' E 022°05'6 8.1
2017-Feb-21 18:33N 71°06' E 022°23'4 4.3
2017-Feb-21 17:32N 71°06' E 022°37'3 3.4
2017-Feb-21 16:33N 71°08' E 022°46'1 1.1
2017-Feb-21 15:33N 71°07' E 022°43'0 0.4
2017-Feb-21 14:33N 71°07' E 022°42'1 0.7
2017-Feb-21 13:33N 71°07' E 022°43'4 4.0
2017-Feb-21 12:33N 71°04' E 022°35'1 1.4
2017-Feb-21 11:33N 71°03' E 022°32'3 2.7
2017-Feb-21 10:33N 71°01' E 022°25'4 3.7
2017-Feb-21 09:33N 71°03' E 022°34'1 1.5
2017-Feb-21 08:33N 71°02' E 022°32'4 3.7
2017-Feb-21 07:33N 71°04' E 022°41'4 3.6
2017-Feb-21 06:33N 71°06' E 022°50'1 0.7
2017-Feb-21 05:33N 71°07' E 022°52'2 2.4
2017-Feb-21 04:33N 71°08' E 022°59'3 2.9
2017-Feb-21 03:33N 71°10' E 022°54'2 2.1
2017-Feb-21 02:24N 71°12' E 022°49'3 3.7
2017-Feb-21 01:33N 71°10' E 022°55'3 3.2
2017-Feb-21 00:33N 71°10' E 023°05'0 0.2
2017-Feb-20 23:33N 71°10' E 023°06'4 3.8
2017-Feb-20 22:33N 71°09' E 022°54'1 1.2
2017-Feb-20 21:33N 71°10' E 022°51'3 2.8
2017-Feb-20 20:33N 71°07' E 022°53'2 1.8
2017-Feb-20 19:33N 71°09' E 022°53'2 1.6
2017-Feb-20 18:33N 71°09' E 022°48'4 3.5
2017-Feb-20 17:33N 71°09' E 022°37'4 4.3
2017-Feb-20 16:33N 71°06' E 022°26'4 3.8
2017-Feb-20 15:33N 71°05' E 022°15'4 0.7
2017-Feb-20 10:14N 71°06' E 022°03'6 8.6
2017-Feb-20 09:33N 71°06' E 022°21'5 5.5
2017-Feb-20 08:33N 71°05' E 022°38'2 1.8
2017-Feb-20 07:33N 71°03' E 022°37'1 1.5
2017-Feb-20 06:33N 71°03' E 022°33'3 2.5
2017-Feb-20 05:33N 71°05' E 022°30'4 3.6
2017-Feb-20 04:33N 71°07' E 022°38'4 3.7
2017-Feb-20 03:33N 71°08' E 022°49'3 3.1
2017-Feb-20 02:33N 71°08' E 022°58'2 2.3
2017-Feb-20 01:33N 71°09' E 023°04'2 2.0
2017-Feb-20 00:33N 71°10' E 022°58'2 1.7
2017-Feb-19 23:33N 71°09' E 023°02'2 1.6
2017-Feb-19 22:33N 71°09' E 022°58'1 1.2
2017-Feb-19 21:33N 71°09' E 022°54'5 5.2
2017-Feb-19 20:33N 71°10' E 022°38'1 0.0
2017-Feb-18 18:25N 71°10' E 022°34'3 3.6
2017-Feb-18 17:33N 71°10' E 022°44'3 3.1
2017-Feb-18 16:33N 71°08' E 022°53'4 4.3
2017-Feb-18 15:33N 71°09' E 022°40'1 1.1
2017-Feb-18 14:33N 71°09' E 022°37'3 3.1
2017-Feb-18 13:33N 71°07' E 022°45'2 1.8
2017-Feb-18 12:33N 71°06' E 022°41'1 0.5
2017-Feb-18 11:33N 71°06' E 022°41'4 3.8
2017-Feb-18 10:33N 71°04' E 022°30'1 1.0
2017-Feb-18 09:33N 71°03' E 022°32'1 1.4
2017-Feb-18 08:33N 71°02' E 022°30'1 0.6
2017-Feb-18 07:33N 71°02' E 022°31'4 3.8
2017-Feb-18 06:33N 71°04' E 022°42'4 3.7
2017-Feb-18 05:33N 71°07' E 022°49'3 3.5
2017-Feb-18 04:33N 71°08' E 022°59'2 2.4
2017-Feb-18 03:33N 71°09' E 022°52'4 4.0
2017-Feb-18 02:33N 71°10' E 022°40'3 2.5
2017-Feb-18 01:33N 71°10' E 022°32'1 0.3
2017-Feb-17 23:33N 71°10' E 022°30'5 2.5
2017-Feb-17 21:33N 71°11' E 022°46'4 4.0
2017-Feb-17 20:33N 71°08' E 022°53'2 1.7
2017-Feb-17 19:33N 71°09' E 022°52'1 1.2
2017-Feb-17 18:33N 71°09' E 022°56'1 0.7
2017-Feb-17 17:33N 71°09' E 022°54'7 3.0
2017-Feb-17 15:17N 71°10' E 022°33'3 3.7
2017-Feb-17 14:33N 71°07' E 022°32'4 3.9
2017-Feb-17 13:33N 71°03' E 022°29'4 3.9
2017-Feb-17 12:33N 71°01' E 022°21'2 2.4
2017-Feb-17 11:33N 71°02' E 022°27'0 0.3
2017-Feb-17 10:33N 71°02' E 022°26'3 3.2
2017-Feb-17 09:33N 71°03' E 022°35'4 3.9
2017-Feb-17 08:33N 71°05' E 022°45'3 3.2
2017-Feb-17 07:33N 71°07' E 022°52'3 2.8
2017-Feb-17 06:33N 71°07' E 022°44'4 4.2
2017-Feb-17 05:33N 71°10' E 022°52'3 2.9
2017-Feb-17 04:33N 71°08' E 022°59'4 3.9
2017-Feb-17 03:33N 71°10' E 022°48'3 3.3
2017-Feb-17 02:33N 71°08' E 022°56'2 1.9
2017-Feb-17 01:33N 71°09' E 022°54'1 1.5
2017-Feb-17 00:33N 71°10' E 022°49'2 2.0
2017-Feb-16 23:33N 71°09' E 022°55'  
Track history (hours):
 
Tides and Currents Weather Stations Pressure Air Temp Water Temp Dewpoint Dewpoint Depression Visibility Wind Speed Wind Dir Waves Ship Positions

Karelia II

Last reported at 2017-Feb-26 23:25 UTC. Time now 2017-Feb-28 12:55 UTC.
Position N 71°34' E 025°35'.

Length 60 m; draft 7.7 m.

Type: Fishing. MMSI: 273425330.

Date/timePositionNaut miles runAvg speedWind from/ knotsBaromVisibWave heightAir tempDewpointWater temp
2017-Feb-26 23:25N 71°34' E 025°35'910.7
2017-Feb-26 22:32N 71°28' E 025°57'2 2.3
2017-Feb-26 21:33N 71°26' E 025°56'1 0.8
2017-Feb-26 20:33N 71°26' E 025°53'2 1.9
2017-Feb-26 19:33N 71°24' E 025°52'1 0.8
2017-Feb-26 18:33N 71°25' E 025°50'4 3.9
2017-Feb-26 17:33N 71°26' E 025°38'4 3.5
2017-Feb-26 16:33N 71°23' E 025°30'3 3.5
2017-Feb-26 15:33N 71°23' E 025°41'2 2.3
2017-Feb-26 14:33N 71°26' E 025°43'4 4.1
2017-Feb-26 13:33N 71°24' E 025°32'3 3.3
2017-Feb-26 12:33N 71°23' E 025°42'4 3.5
2017-Feb-26 11:33N 71°23' E 025°53'4 3.9
2017-Feb-26 10:33N 71°23' E 026°05'2 2.2
2017-Feb-26 09:33N 71°23' E 025°58'4 4.2
2017-Feb-26 08:33N 71°23' E 025°45'1 0.9
2017-Feb-26 07:33N 71°23' E 025°43'2 1.7
2017-Feb-26 06:33N 71°23' E 025°48'5 4.9
2017-Feb-26 05:33N 71°25' E 025°34'1 1.3
2017-Feb-26 04:33N 71°25' E 025°31'2 1.5
2017-Feb-26 03:33N 71°25' E 025°35'4 3.6
2017-Feb-26 02:33N 71°28' E 025°42'4 3.7
2017-Feb-26 01:33N 71°30' E 025°51'3 3.3
2017-Feb-26 00:33N 71°28' E 025°44'3 2.7
2017-Feb-25 23:33N 71°26' E 025°40'4 4.1
2017-Feb-25 22:33N 71°30' E 025°44'1 1.4
2017-Feb-25 21:33N 71°28' E 025°44'3 3.1
2017-Feb-25 20:33N 71°25' E 025°41'3 3.2
2017-Feb-25 19:33N 71°28' E 025°38'3 3.4
2017-Feb-25 18:33N 71°26' E 025°29'3 2.9
2017-Feb-25 17:33N 71°24' E 025°34'1 1.1
2017-Feb-25 16:32N 71°23' E 025°31'4 3.8
2017-Feb-25 15:33N 71°23' E 025°43'1 0.8
2017-Feb-25 14:32N 71°23' E 025°45'2 1.8
2017-Feb-25 13:33N 71°23' E 025°40'2 1.5
2017-Feb-25 12:33N 71°23' E 025°44'3 2.9
2017-Feb-25 11:33N 71°24' E 025°35'4 3.7
2017-Feb-25 10:33N 71°23' E 025°47'0 0.3
2017-Feb-25 09:33N 71°23' E 025°47'4 4.2
2017-Feb-25 08:33N 71°23' E 025°34'1 1.4
2017-Feb-25 07:33N 71°23' E 025°30'3 3.2
2017-Feb-25 06:33N 71°23' E 025°21'4 3.7
2017-Feb-25 05:33N 71°23' E 025°32'4 4.2
2017-Feb-25 04:33N 71°23' E 025°45'3 2.8
2017-Feb-25 03:33N 71°23' E 025°36'4 4.2
2017-Feb-25 02:33N 71°23' E 025°23'3 3.4
2017-Feb-25 01:33N 71°24' E 025°34'3 3.1
2017-Feb-25 00:33N 71°23' E 025°44'3 3.0
2017-Feb-24 23:33N 71°26' E 025°47'3 2.6
2017-Feb-24 22:33N 71°28' E 025°49'3 2.9
2017-Feb-24 21:33N 71°26' E 025°47'4 4.3
2017-Feb-24 20:32N 71°27' E 025°34'1 1.3
2017-Feb-24 19:33N 71°26' E 025°37'2 2.2
2017-Feb-24 18:33N 71°24' E 025°40'4 3.8
2017-Feb-24 17:33N 71°23' E 025°52'4 4.2
2017-Feb-24 16:33N 71°23' E 026°05'3 2.8
2017-Feb-24 15:33N 71°23' E 025°56'3 2.6
2017-Feb-24 14:33N 71°24' E 025°49'3 2.7
2017-Feb-24 13:33N 71°23' E 025°57'3 3.3
2017-Feb-24 12:33N 71°23' E 025°46'1 0.7
2017-Feb-24 11:33N 71°23' E 025°49'1 0.9
2017-Feb-24 10:33N 71°23' E 025°51'4 4.2
2017-Feb-24 09:33N 71°24' E 025°38'4 3.6
2017-Feb-24 08:33N 71°23' E 025°49'2 1.7
2017-Feb-24 07:33N 71°23' E 025°44'2 2.4
2017-Feb-24 06:33N 71°23' E 025°37'3 3.1
2017-Feb-24 05:32N 71°25' E 025°45'1 1.3
2017-Feb-24 04:33N 71°26' E 025°42'2 2.0
2017-Feb-24 03:33N 71°26' E 025°48'3 2.9
2017-Feb-24 02:33N 71°27' E 025°56'3 3.1
2017-Feb-24 01:33N 71°25' E 025°47'3 2.8
2017-Feb-24 00:33N 71°23' E 025°54'4 4.4
2017-Feb-23 23:33N 71°26' E 025°44'1 0.8
2017-Feb-23 22:33N 71°26' E 025°44'2 2.5
2017-Feb-23 21:33N 71°28' E 025°45'3 2.5
2017-Feb-23 20:33N 71°26' E 025°50'4 4.0
2017-Feb-23 19:32N 71°26' E 025°37'0 0.5
2017-Feb-23 18:33N 71°25' E 025°38'4 4.1
2017-Feb-23 17:33N 71°25' E 025°50'2 1.8
2017-Feb-23 16:33N 71°24' E 025°45'4 4.3
2017-Feb-23 15:33N 71°24' E 025°32'1211.7
2017-Feb-23 14:33N 71°21' E 024°56'1212.4
2017-Feb-23 13:33N 71°19' E 024°18'1212.3
2017-Feb-23 12:33N 71°17' E 023°41'1312.9
2017-Feb-23 11:33N 71°10' E 023°06'1211.8
2017-Feb-23 10:33N 71°04' E 022°34'1 1.4
2017-Feb-23 09:33N 71°03' E 022°31'1 1.4
2017-Feb-23 08:33N 71°04' E 022°34'4 3.9
2017-Feb-23 07:33N 71°01' E 022°26'4 3.5
2017-Feb-23 06:33N 71°03' E 022°35'4 3.6
2017-Feb-23 05:33N 71°05' E 022°45'2 2.3
2017-Feb-23 04:33N 71°07' E 022°49'3 2.7
2017-Feb-23 03:33N 71°08' E 022°57'2 1.6
2017-Feb-23 02:33N 71°09' E 023°02'4 3.9
2017-Feb-23 01:33N 71°11' E 022°53'1 1.1
2017-Feb-23 00:33N 71°10' E 022°54'3 2.8
2017-Feb-22 23:33N 71°10' E 023°03'3 3.0
2017-Feb-22 22:33N 71°08' E 022°58'4 4.2
2017-Feb-22 21:33N 71°05' E 022°46'4 4.5
2017-Feb-22 20:33N 71°03' E 022°35'4 4.5
2017-Feb-22 19:33N 71°01' E 022°23'1 0.9
2017-Feb-22 18:33N 71°01' E 022°25'3 3.5
2017-Feb-22 17:33N 71°05' E 022°28'3 3.3
2017-Feb-22 16:33N 71°03' E 022°37'4 3.5
2017-Feb-22 15:33N 71°06' E 022°46'4 4.2
2017-Feb-22 14:33N 71°03' E 022°36'4 4.4
2017-Feb-22 13:33N 71°01' E 022°24'0 0.4
2017-Feb-22 12:33N 71°01' E 022°23'4 3.7
2017-Feb-22 11:32N 71°03' E 022°31'1 0.9
2017-Feb-22 10:33N 71°03' E 022°34'4 4.2
2017-Feb-22 09:32N 71°01' E 022°23'1 1.1
2017-Feb-22 08:33N 71°01' E 022°26'4 3.7
2017-Feb-22 07:33N 71°03' E 022°36'1 0.7
2017-Feb-22 06:32N 71°03' E 022°34'4 4.3
2017-Feb-22 05:33N 71°01' E 022°23'7 7.3
2017-Feb-22 04:33N 71°06' E 022°09'2 1.8
2017-Feb-22 03:12N 71°06' E 022°02'2 3.2
2017-Feb-22 02:33N 71°04' E 021°60'3 3.2
2017-Feb-22 01:33N 71°01' E 021°57'1 0.9
2017-Feb-22 00:33N 71°01' E 021°59'5 1.0
2017-Feb-21 19:16N 71°06' E 022°05'6 8.1
2017-Feb-21 18:33N 71°06' E 022°23'4 4.3
2017-Feb-21 17:32N 71°06' E 022°37'3 3.4
2017-Feb-21 16:33N 71°08' E 022°46'1 1.1
2017-Feb-21 15:33N 71°07' E 022°43'0 0.4
2017-Feb-21 14:33N 71°07' E 022°42'1 0.7
2017-Feb-21 13:33N 71°07' E 022°43'4 4.0
2017-Feb-21 12:33N 71°04' E 022°35'1 1.4
2017-Feb-21 11:33N 71°03' E 022°32'3 2.7
2017-Feb-21 10:33N 71°01' E 022°25'4 3.7
2017-Feb-21 09:33N 71°03' E 022°34'1 1.5
2017-Feb-21 08:33N 71°02' E 022°32'4 3.7
2017-Feb-21 07:33N 71°04' E 022°41'4 3.6
2017-Feb-21 06:33N 71°06' E 022°50'1 0.7
2017-Feb-21 05:33N 71°07' E 022°52'2 2.4
2017-Feb-21 04:33N 71°08' E 022°59'3 2.9
2017-Feb-21 03:33N 71°10' E 022°54'2 2.1
2017-Feb-21 02:24N 71°12' E 022°49'3 3.7
2017-Feb-21 01:33N 71°10' E 022°55'3 3.2
2017-Feb-21 00:33N 71°10' E 023°05'0 0.2
2017-Feb-20 23:33N 71°10' E 023°06'4 3.8
2017-Feb-20 22:33N 71°09' E 022°54'1 1.2
2017-Feb-20 21:33N 71°10' E 022°51'3 2.8
2017-Feb-20 20:33N 71°07' E 022°53'2 1.8
2017-Feb-20 19:33N 71°09' E 022°53'2 1.6
2017-Feb-20 18:33N 71°09' E 022°48'4 3.5
2017-Feb-20 17:33N 71°09' E 022°37'4 4.3
2017-Feb-20 16:33N 71°06' E 022°26'4 3.8
2017-Feb-20 15:33N 71°05' E 022°15'4 0.7
2017-Feb-20 10:14N 71°06' E 022°03'6 8.6
2017-Feb-20 09:33N 71°06' E 022°21'5 5.5
2017-Feb-20 08:33N 71°05' E 022°38'2 1.8
2017-Feb-20 07:33N 71°03' E 022°37'1 1.5
2017-Feb-20 06:33N 71°03' E 022°33'3 2.5
2017-Feb-20 05:33N 71°05' E 022°30'4 3.6
2017-Feb-20 04:33N 71°07' E 022°38'4 3.7
2017-Feb-20 03:33N 71°08' E 022°49'3 3.1
2017-Feb-20 02:33N 71°08' E 022°58'2 2.3
2017-Feb-20 01:33N 71°09' E 023°04'2 2.0
2017-Feb-20 00:33N 71°10' E 022°58'2 1.7
2017-Feb-19 23:33N 71°09' E 023°02'2 1.6
2017-Feb-19 22:33N 71°09' E 022°58'1 1.2
2017-Feb-19 21:33N 71°09' E 022°54'5 5.2
2017-Feb-19 20:33N 71°10' E 022°38'1 0.0
2017-Feb-18 18:25N 71°10' E 022°34'3 3.6
2017-Feb-18 17:33N 71°10' E 022°44'3 3.1
2017-Feb-18 16:33N 71°08' E 022°53'4 4.3
2017-Feb-18 15:33N 71°09' E 022°40'1 1.1
2017-Feb-18 14:33N 71°09' E 022°37'3 3.1
2017-Feb-18 13:33N 71°07' E 022°45'2 1.8
2017-Feb-18 12:33N 71°06' E 022°41'1 0.5
2017-Feb-18 11:33N 71°06' E 022°41'4 3.8
2017-Feb-18 10:33N 71°04' E 022°30'1 1.0
2017-Feb-18 09:33N 71°03' E 022°32'1 1.4
2017-Feb-18 08:33N 71°02' E 022°30'1 0.6
2017-Feb-18 07:33N 71°02' E 022°31'4 3.8
2017-Feb-18 06:33N 71°04' E 022°42'4 3.7
2017-Feb-18 05:33N 71°07' E 022°49'3 3.5
2017-Feb-18 04:33N 71°08' E 022°59'2 2.4
2017-Feb-18 03:33N 71°09' E 022°52'4 4.0
2017-Feb-18 02:33N 71°10' E 022°40'3 2.5
2017-Feb-18 01:33N 71°10' E 022°32'1 0.3
2017-Feb-17 23:33N 71°10' E 022°30'5 2.5
2017-Feb-17 21:33N 71°11' E 022°46'4 4.0
2017-Feb-17 20:33N 71°08' E 022°53'2 1.7
2017-Feb-17 19:33N 71°09' E 022°52'1 1.2
2017-Feb-17 18:33N 71°09' E 022°56'1 0.7
2017-Feb-17 17:33N 71°09' E 022°54'7 3.0
2017-Feb-17 15:17N 71°10' E 022°33'3 3.7
2017-Feb-17 14:33N 71°07' E 022°32'4 3.9
2017-Feb-17 13:33N 71°03' E 022°29'4 3.9
2017-Feb-17 12:33N 71°01' E 022°21'2 2.4
2017-Feb-17 11:33N 71°02' E 022°27'0 0.3
2017-Feb-17 10:33N 71°02' E 022°26'3 3.2
2017-Feb-17 09:33N 71°03' E 022°35'4 3.9
2017-Feb-17 08:33N 71°05' E 022°45'3 3.2
2017-Feb-17 07:33N 71°07' E 022°52'3 2.8
2017-Feb-17 06:33N 71°07' E 022°44'4 4.2
2017-Feb-17 05:33N 71°10' E 022°52'3 2.9
2017-Feb-17 04:33N 71°08' E 022°59'4 3.9
2017-Feb-17 03:33N 71°10' E 022°48'3 3.3
2017-Feb-17 02:33N 71°08' E 022°56'2 1.9
2017-Feb-17 01:33N 71°09' E 022°54'1 1.5
2017-Feb-17 00:33N 71°10' E 022°49'2 2.0
2017-Feb-16 23:33N 71°09' E 022°55'  

Dump ship's entire track history